Time;durP1;ratioP1;P1;durP2;ratioP2;P2;SDS_P1;SDS_P2;PMS_P1;PMS_P2;Temp;Humidity;BMP_temperature;BMP_pressure;BME280_temperature;BME280_humidity;BME280_pressure;Samples;Min_cycle;Max_cycle;Signal;HPM_P1;HPM_P2
2022/07/02 00:02:22;;;;;;;4.18;1.63;;;12.90;99.90;;;;;;5093869;28;20543;-57
2022/07/02 00:04:57;;;;;;;3.03;1.50;;;12.70;99.90;;;;;;5093297;28;20044;-57
2022/07/02 00:07:23;;;;;;;3.90;1.70;;;12.80;99.90;;;;;;5093480;28;20016;-57
2022/07/02 00:09:50;;;;;;;3.55;1.67;;;12.70;99.90;;;;;;5093317;28;20032;-57
2022/07/02 00:12:16;;;;;;;3.20;1.88;;;12.70;99.90;;;;;;5093644;28;20032;-57
2022/07/02 00:14:42;;;;;;;4.57;2.05;;;12.60;99.90;;;;;;5095202;28;20028;-57
2022/07/02 00:17:09;;;;;;;3.85;2.17;;;12.60;99.90;;;;;;5092701;28;20032;-57
2022/07/02 00:19:36;;;;;;;4.75;2.40;;;12.60;99.90;;;;;;5093463;28;20016;-57
2022/07/02 00:22:03;;;;;;;4.15;2.50;;;12.60;99.90;;;;;;5093041;28;20066;-57
2022/07/02 00:24:28;;;;;;;5.95;3.00;;;12.50;99.90;;;;;;5091665;28;20500;-57
2022/07/02 00:26:57;;;;;;;7.13;2.63;;;12.50;99.90;;;;;;5094302;28;20024;-57
2022/07/02 00:29:44;;;;;;;3.72;2.22;;;12.50;99.90;;;;;;5093962;28;20077;-57
2022/07/02 00:32:10;;;;;;;3.85;2.17;;;12.40;99.90;;;;;;5092867;28;20112;-57
2022/07/02 00:34:39;;;;;;;4.07;2.05;;;12.30;99.90;;;;;;5092874;28;20082;-57
2022/07/02 00:37:08;;;;;;;3.78;2.10;;;12.30;99.90;;;;;;5092830;28;20108;-57
2022/07/02 00:39:34;;;;;;;4.13;2.25;;;12.20;99.90;;;;;;5091508;28;20036;-57
2022/07/02 00:42:02;;;;;;;3.33;1.70;;;12.00;99.90;;;;;;5093150;28;20060;-57
2022/07/02 00:44:29;;;;;;;4.07;1.90;;;11.90;99.90;;;;;;5094701;28;20077;-57
2022/07/02 00:46:56;;;;;;;3.83;1.70;;;11.90;99.90;;;;;;5092283;28;20078;-57
2022/07/02 00:49:23;;;;;;;4.70;1.60;;;12.00;99.90;;;;;;5092648;28;20043;-57
2022/07/02 00:51:49;;;;;;;5.10;1.73;;;12.00;99.90;;;;;;5092621;28;20111;-57
2022/07/02 00:54:14;;;;;;;4.20;1.52;;;12.00;99.90;;;;;;5093058;28;20099;-57
2022/07/02 00:56:40;;;;;;;2.88;1.60;;;12.10;99.90;;;;;;5094330;28;20028;-57
2022/07/02 00:59:06;;;;;;;6.57;1.70;;;12.30;99.90;;;;;;5092263;28;20067;-57
2022/07/02 01:01:32;;;;;;;4.18;1.75;;;12.30;99.90;;;;;;5091918;28;20032;-57
2022/07/02 01:04:00;;;;;;;3.97;1.70;;;12.20;99.90;;;;;;5090706;28;20031;-57
2022/07/02 01:06:27;;;;;;;5.53;1.83;;;12.00;99.90;;;;;;5091307;28;20330;-57
2022/07/02 01:11:41;;;;;;;4.65;1.83;;;12.00;99.90;;;;;;5093501;28;20073;-57
2022/07/02 01:14:07;;;;;;;4.93;1.70;;;12.00;99.90;;;;;;5092486;28;20047;-57
2022/07/02 01:16:33;;;;;;;3.33;1.52;;;11.90;99.90;;;;;;5091782;28;20051;-57
2022/07/02 01:18:58;;;;;;;5.43;1.75;;;11.90;99.90;;;;;;5091991;28;20040;-57
2022/07/02 01:21:24;;;;;;;4.93;1.90;;;11.70;99.90;;;;;;5092191;28;20047;-57
2022/07/02 01:23:50;;;;;;;3.67;1.90;;;11.70;99.90;;;;;;5093764;28;20472;-57
2022/07/02 01:26:15;;;;;;;3.38;1.73;;;11.70;99.90;;;;;;5092337;28;20085;-56
2022/07/02 01:28:41;;;;;;;5.03;1.90;;;11.60;99.90;;;;;;5091792;28;20111;-57
2022/07/02 01:31:07;;;;;;;3.60;1.58;;;11.60;99.90;;;;;;5091533;28;20036;-57
2022/07/02 01:33:32;;;;;;;2.92;1.80;;;11.50;99.90;;;;;;5091769;28;20020;-57
2022/07/02 01:35:58;;;;;;;4.05;1.83;;;11.40;99.90;;;;;;5092740;28;20031;-57
2022/07/02 01:38:24;;;;;;;3.22;1.90;;;11.30;99.90;;;;;;5092779;28;20908;-56
2022/07/02 01:40:50;;;;;;;3.78;1.80;;;11.10;99.90;;;;;;5091850;28;20095;-57
2022/07/02 01:43:16;;;;;;;5.28;1.77;;;11.20;99.90;;;;;;5089831;28;20483;-57
2022/07/02 01:45:41;;;;;;;3.25;1.60;;;11.30;99.90;;;;;;5089608;28;20081;-57
2022/07/02 01:48:07;;;;;;;3.88;1.92;;;11.30;99.90;;;;;;5091021;28;20035;-57
2022/07/02 01:50:36;;;;;;;4.10;2.10;;;11.20;99.90;;;;;;5093774;28;20024;-57
2022/07/02 01:53:02;;;;;;;4.88;1.90;;;11.10;99.90;;;;;;5091223;28;20489;-57
2022/07/02 01:55:28;;;;;;;3.60;1.90;;;11.30;99.90;;;;;;5090099;28;20024;-57
2022/07/02 01:57:53;;;;;;;3.22;2.05;;;11.20;99.90;;;;;;5091205;28;20104;-57
2022/07/02 02:00:19;;;;;;;4.15;1.98;;;11.10;99.90;;;;;;5091527;28;20043;-57
2022/07/02 02:02:46;;;;;;;3.35;1.88;;;11.20;99.90;;;;;;5091895;28;20020;-57
2022/07/02 02:05:12;;;;;;;4.25;2.03;;;11.30;99.90;;;;;;5091048;28;20097;-57
2022/07/02 02:07:37;;;;;;;5.88;2.10;;;11.30;99.90;;;;;;5091328;28;20016;-57
2022/07/02 02:10:04;;;;;;;3.05;1.92;;;11.20;99.90;;;;;;5090912;28;20036;-56
2022/07/02 02:12:29;;;;;;;3.08;2.00;;;11.10;99.90;;;;;;5090667;28;20515;-57
2022/07/02 02:14:55;;;;;;;3.70;1.95;;;10.80;99.90;;;;;;5092525;28;20028;-57
2022/07/02 02:17:21;;;;;;;4.63;2.08;;;10.70;99.90;;;;;;5091714;28;20062;-57
2022/07/02 02:19:47;;;;;;;4.03;1.90;;;10.70;99.90;;;;;;5091107;28;20032;-57
2022/07/02 02:22:12;;;;;;;3.92;2.10;;;10.70;99.90;;;;;;5089306;28;20027;-57
2022/07/02 02:24:38;;;;;;;3.55;2.03;;;10.60;99.90;;;;;;5089198;28;20047;-57
2022/07/02 02:27:04;;;;;;;4.28;2.10;;;10.80;99.90;;;;;;5090417;28;20032;-57
2022/07/02 02:29:30;;;;;;;5.13;2.17;;;10.80;99.90;;;;;;5093159;28;20034;-57
2022/07/02 02:31:55;;;;;;;5.75;2.10;;;10.80;99.90;;;;;;5090557;28;20028;-57
2022/07/02 02:34:21;;;;;;;6.13;2.10;;;10.90;99.90;;;;;;5090565;28;20027;-57
2022/07/02 02:36:47;;;;;;;3.47;2.10;;;10.80;99.90;;;;;;5090669;28;20060;-57
2022/07/02 02:39:13;;;;;;;3.28;1.98;;;10.70;99.90;;;;;;5090510;28;20102;-57
2022/07/02 02:41:38;;;;;;;4.50;2.00;;;10.80;99.90;;;;;;5092340;28;20056;-58
2022/07/02 02:44:04;;;;;;;2.70;2.03;;;10.80;99.90;;;;;;5090198;28;20047;-57
2022/07/02 02:46:30;;;;;;;4.68;2.03;;;10.80;99.90;;;;;;5090560;28;20558;-58
2022/07/02 02:48:56;;;;;;;4.95;2.10;;;10.80;99.90;;;;;;5089318;28;20115;-59
2022/07/02 02:51:21;;;;;;;2.55;2.03;;;10.70;99.90;;;;;;5090474;28;20028;-57
2022/07/02 02:53:48;;;;;;;3.85;1.85;;;10.60;99.90;;;;;;5092286;28;20392;-59
2022/07/02 02:56:14;;;;;;;3.90;1.98;;;10.70;99.90;;;;;;5090596;28;20122;-58
2022/07/02 02:58:40;;;;;;;5.10;2.20;;;10.70;99.90;;;;;;5089446;28;20028;-58
2022/07/02 03:01:06;;;;;;;3.67;2.13;;;10.60;99.90;;;;;;5088694;28;20028;-57
2022/07/02 03:03:31;;;;;;;5.65;2.00;;;10.50;99.90;;;;;;5089177;28;20480;-58
2022/07/02 03:05:57;;;;;;;5.43;1.85;;;10.50;99.90;;;;;;5091032;28;20043;-58
2022/07/02 03:08:23;;;;;;;2.72;1.95;;;10.60;99.90;;;;;;5091023;28;20027;-58
2022/07/02 03:10:49;;;;;;;3.97;2.10;;;10.60;99.90;;;;;;5089712;28;20131;-58
2022/07/02 03:13:15;;;;;;;5.32;1.95;;;10.60;99.90;;;;;;5090003;28;20548;-58
2022/07/02 03:15:41;;;;;;;2.88;2.20;;;10.40;99.90;;;;;;5090069;28;20020;-58
2022/07/02 03:18:07;;;;;;;7.28;2.10;;;10.40;99.90;;;;;;5090292;28;20036;-58
2022/07/02 03:20:32;;;;;;;4.18;2.10;;;10.40;99.90;;;;;;5092180;28;20376;-58
2022/07/02 03:22:59;;;;;;;5.53;2.30;;;10.20;99.90;;;;;;5089648;28;20493;-58
2022/07/02 03:25:26;;;;;;;5.03;2.38;;;10.20;99.90;;;;;;5089642;28;20484;-58
2022/07/02 03:27:52;;;;;;;4.88;2.53;;;10.20;99.90;;;;;;5089847;28;20028;-58
2022/07/02 03:30:17;;;;;;;6.95;2.33;;;10.20;99.90;;;;;;5090089;28;20393;-59
2022/07/02 03:32:43;;;;;;;3.78;2.15;;;10.10;99.90;;;;;;5092225;28;20400;-57
2022/07/02 03:35:09;;;;;;;3.70;2.15;;;10.10;99.90;;;;;;5089727;28;20028;-58
2022/07/02 03:37:35;;;;;;;2.90;2.40;;;10.00;99.90;;;;;;5089532;28;20434;-58
2022/07/02 03:40:01;;;;;;;7.13;2.33;;;9.90;99.90;;;;;;5087962;28;20097;-58
2022/07/02 03:42:26;;;;;;;5.25;2.38;;;9.90;99.90;;;;;;5088044;28;20137;-58
2022/07/02 03:44:52;;;;;;;5.15;2.33;;;9.80;99.90;;;;;;5091515;28;20024;-58
2022/07/02 03:47:18;;;;;;;4.90;2.30;;;9.90;99.90;;;;;;5105996;28;20039;-58
2022/07/02 03:49:43;;;;;;;5.70;2.65;;;9.90;99.90;;;;;;5089526;28;20029;-58
2022/07/02 03:52:09;;;;;;;4.75;2.33;;;10.00;99.90;;;;;;5089487;28;20024;-58
2022/07/02 03:54:35;;;;;;;3.00;2.20;;;10.10;99.90;;;;;;5089757;28;20024;-58
2022/07/02 03:57:01;;;;;;;5.20;2.20;;;10.10;99.90;;;;;;5090286;28;20040;-58
2022/07/02 03:59:26;;;;;;;3.55;2.30;;;10.10;99.90;;;;;;5091205;28;20020;-58
2022/07/02 04:01:55;;;;;;;3.90;2.22;;;9.90;99.90;;;;;;5089450;28;20040;-58
2022/07/02 04:04:21;;;;;;;5.50;2.50;;;9.80;99.90;;;;;;5089350;28;20035;-57
2022/07/02 04:06:47;;;;;;;6.03;3.63;;;9.90;99.90;;;;;;5089587;28;20028;-59
2022/07/02 04:09:13;;;;;;;6.95;4.97;;;9.90;99.90;;;;;;5089214;28;20097;-58
2022/07/02 04:11:39;;;;;;;12.50;10.70;;;9.80;99.90;;;;;;5095070;28;20024;-58
2022/07/02 04:14:04;;;;;;;18.40;14.85;;;9.90;99.90;;;;;;5093704;28;20035;-58
2022/07/02 04:16:30;;;;;;;11.65;8.98;;;9.90;99.90;;;;;;5093175;28;20507;-58
2022/07/02 04:18:56;;;;;;;9.27;6.82;;;10.00;99.90;;;;;;5091768;28;20027;-58
2022/07/02 04:21:21;;;;;;;8.98;6.80;;;10.00;99.90;;;;;;5090704;28;20032;-58
2022/07/02 04:23:47;;;;;;;6.75;6.05;;;9.90;99.90;;;;;;5094727;28;20069;-57
2022/07/02 04:26:13;;;;;;;6.60;5.18;;;9.90;99.90;;;;;;5092940;28;20404;-58
2022/07/02 04:28:38;;;;;;;5.35;4.72;;;9.80;99.90;;;;;;5093036;28;20046;-58
2022/07/02 04:31:04;;;;;;;6.32;3.80;;;9.80;99.90;;;;;;5093240;28;20472;-58
2022/07/02 04:33:30;;;;;;;6.40;4.20;;;9.90;99.90;;;;;;5093006;28;20107;-58
2022/07/02 04:35:56;;;;;;;14.38;11.75;;;9.90;99.90;;;;;;5094056;28;20098;-58
2022/07/02 04:38:21;;;;;;;30.95;28.00;;;10.00;99.90;;;;;;5093325;28;20027;-58
2022/07/02 04:40:47;;;;;;;18.65;16.80;;;10.00;99.90;;;;;;5092668;28;20035;-58
2022/07/02 04:43:12;;;;;;;15.95;14.30;;;10.10;99.90;;;;;;5092770;28;20147;-58
2022/07/02 04:45:38;;;;;;;11.13;7.15;;;10.10;99.90;;;;;;5092706;28;20039;-58
2022/07/02 04:48:04;;;;;;;7.50;6.30;;;10.10;99.90;;;;;;5092982;28;20016;-58
2022/07/02 04:50:30;;;;;;;5.78;3.95;;;10.10;99.90;;;;;;5094462;28;20028;-58
2022/07/02 04:52:56;;;;;;;4.18;2.40;;;10.00;99.90;;;;;;5092471;28;20497;-58
2022/07/02 04:55:22;;;;;;;6.85;2.50;;;10.00;99.90;;;;;;5092445;28;20534;-58
2022/07/02 04:57:47;;;;;;;5.03;2.50;;;10.10;99.90;;;;;;5091078;28;20032;-58
2022/07/02 05:00:13;;;;;;;4.63;1.92;;;10.10;99.90;;;;;;5091860;28;20035;-58
2022/07/02 05:02:39;;;;;;;4.43;2.10;;;10.20;99.90;;;;;;5093949;28;20408;-58
2022/07/02 05:05:05;;;;;;;5.03;2.30;;;10.20;99.90;;;;;;5092103;28;20040;-58
2022/07/02 05:07:31;;;;;;;2.47;1.77;;;10.30;99.90;;;;;;5091767;28;20531;-58
2022/07/02 05:10:00;;;;;;;2.90;1.70;;;10.40;99.90;;;;;;5092149;28;20024;-58
2022/07/02 05:12:25;;;;;;;3.97;1.90;;;10.40;99.90;;;;;;5092587;28;20078;-58
2022/07/02 05:14:51;;;;;;;2.72;1.90;;;10.40;99.90;;;;;;5093717;28;20384;-58
2022/07/02 05:17:17;;;;;;;2.70;2.00;;;10.50;99.90;;;;;;5091134;28;20028;-58
2022/07/02 05:19:44;;;;;;;3.53;2.35;;;10.60;99.90;;;;;;5091869;28;20024;-58
2022/07/02 05:22:10;;;;;;;5.00;2.10;;;10.70;99.90;;;;;;5090598;28;20115;-58
2022/07/02 05:24:35;;;;;;;4.00;2.03;;;10.80;99.90;;;;;;5091954;28;20615;-58
2022/07/02 05:27:01;;;;;;;3.30;1.92;;;11.20;99.90;;;;;;5092318;28;20060;-58
2022/07/02 05:29:27;;;;;;;3.20;1.70;;;13.40;99.90;;;;;;5093884;28;20012;-58
2022/07/02 05:31:53;;;;;;;2.50;1.40;;;15.10;99.90;;;;;;5091834;28;20518;-59
2022/07/02 05:34:18;;;;;;;5.57;1.50;;;16.20;99.90;;;;;;5091578;28;20024;-58
2022/07/02 05:36:44;;;;;;;4.93;1.52;;;17.10;99.90;;;;;;5089898;28;20028;-58
2022/07/02 05:39:10;;;;;;;2.75;1.42;;;18.00;99.90;;;;;;5090227;28;20120;-58
2022/07/02 05:41:35;;;;;;;3.55;1.48;;;17.80;99.90;;;;;;5092007;28;20043;-58
2022/07/02 05:44:01;;;;;;;3.40;1.40;;;18.10;99.90;;;;;;5091995;28;20392;-58
2022/07/02 05:46:27;;;;;;;4.32;1.48;;;17.30;99.90;;;;;;5091274;28;20032;-57
2022/07/02 05:48:52;;;;;;;4.13;1.67;;;18.00;99.90;;;;;;5091343;28;20051;-59
2022/07/02 05:51:18;;;;;;;4.88;1.70;;;19.00;99.90;;;;;;5091272;28;20028;-58
2022/07/02 05:53:44;;;;;;;5.03;2.05;;;19.60;99.90;;;;;;5093275;28;20024;-59
2022/07/02 05:56:09;;;;;;;6.65;1.83;;;20.30;99.90;;;;;;5091244;28;20028;-59
2022/07/02 05:58:35;;;;;;;6.00;1.75;;;21.40;99.90;;;;;;5090469;28;20450;-59
2022/07/02 06:01:01;;;;;;;3.60;1.60;;;22.50;99.90;;;;;;5090988;28;20063;-59
2022/07/02 06:03:26;;;;;;;4.50;1.60;;;23.40;99.90;;;;;;5091373;28;20396;-59
2022/07/02 06:08:39;;;;;;;3.65;1.55;;;24.20;99.90;;;;;;5093555;28;20492;-59
2022/07/02 06:11:06;;;;;;;5.25;1.80;;;24.80;99.90;;;;;;5090887;28;20050;-59
2022/07/02 06:13:32;;;;;;;3.40;1.77;;;24.80;99.90;;;;;;5089696;28;20400;-59
2022/07/02 06:15:58;;;;;;;3.70;1.50;;;24.00;98.70;;;;;;5089835;28;20503;-59
2022/07/02 06:18:24;;;;;;;3.38;1.40;;;24.00;99.80;;;;;;5089540;28;20024;-59
2022/07/02 06:20:50;;;;;;;6.22;1.50;;;25.20;99.90;;;;;;5092347;28;20384;-58
2022/07/02 06:23:16;;;;;;;2.42;1.38;;;25.90;95.90;;;;;;5091149;28;20035;-59
2022/07/02 06:25:42;;;;;;;2.28;1.20;;;26.00;95.20;;;;;;5090547;28;20067;-59
2022/07/02 06:28:07;;;;;;;3.30;1.20;;;26.10;96.80;;;;;;5091100;28;20062;-59
2022/07/02 06:30:33;;;;;;;3.10;1.40;;;28.00;95.40;;;;;;5090488;28;20468;-58
2022/07/02 06:32:59;;;;;;;3.00;1.35;;;29.00;93.30;;;;;;5091556;28;20095;-59
2022/07/02 06:35:24;;;;;;;3.47;1.38;;;27.70;91.50;;;;;;5091329;28;20374;-58
2022/07/02 06:37:50;;;;;;;2.25;1.10;;;28.50;90.20;;;;;;5090828;28;20032;-58
2022/07/02 06:40:16;;;;;;;2.17;1.10;;;27.60;90.60;;;;;;5090445;28;20031;-59
2022/07/02 06:42:42;;;;;;;1.67;0.90;;;28.30;88.50;;;;;;5090421;28;20059;-58
2022/07/02 06:45:08;;;;;;;4.13;1.10;;;27.40;90.20;;;;;;5090303;28;20081;-58
2022/07/02 06:47:39;;;;;;;1.83;1.00;;;27.90;87.00;;;;;;5092337;28;20073;-59
2022/07/02 06:50:06;;;;;;;1.48;1.10;;;27.10;89.80;;;;;;5090007;28;20543;-58
2022/07/02 06:52:32;;;;;;;2.65;1.08;;;29.40;88.80;;;;;;5090690;28;20485;-58
2022/07/02 06:54:58;;;;;;;3.95;1.10;;;31.30;84.90;;;;;;5088778;28;20028;-58
2022/07/02 06:57:24;;;;;;;2.72;0.93;;;30.20;84.10;;;;;;5088864;28;20562;-58
2022/07/02 06:59:50;;;;;;;1.77;0.90;;;30.30;82.70;;;;;;5092012;28;20039;-58
2022/07/02 07:02:16;;;;;;;1.45;0.73;;;30.90;80.10;;;;;;5090541;28;20020;-58
2022/07/02 07:04:42;;;;;;;2.00;1.00;;;31.60;81.90;;;;;;5090183;28;20115;-58
2022/07/02 07:07:10;;;;;;;3.58;1.10;;;30.00;81.10;;;;;;5089985;28;20515;-59
2022/07/02 07:09:36;;;;;;;1.58;0.80;;;30.90;81.30;;;;;;5090124;28;20493;-59
2022/07/02 07:12:04;;;;;;;3.85;0.88;;;31.70;80.20;;;;;;5089252;28;20047;-59
2022/07/02 07:14:31;;;;;;;2.63;1.02;;;32.80;79.50;;;;;;5089665;28;20409;-59
2022/07/02 07:16:57;;;;;;;3.17;0.90;;;33.30;79.40;;;;;;5090087;28;20480;-58
2022/07/02 07:19:23;;;;;;;3.10;0.90;;;32.40;78.50;;;;;;5090047;28;20020;-58
2022/07/02 07:21:49;;;;;;;1.60;0.85;;;32.60;77.70;;;;;;5090069;28;20092;-59
2022/07/02 07:24:15;;;;;;;2.80;1.10;;;32.40;77.80;;;;;;5089965;28;20032;-59
2022/07/02 07:26:41;;;;;;;1.42;0.90;;;32.80;77.30;;;;;;5092299;28;20036;-59
2022/07/02 07:29:06;;;;;;;1.80;1.00;;;32.70;76.30;;;;;;5089945;28;20024;-59
2022/07/02 07:31:34;;;;;;;1.98;1.00;;;33.80;75.80;;;;;;5089540;28;20024;-58
2022/07/02 07:34:00;;;;;;;3.38;0.95;;;35.10;75.80;;;;;;5088456;28;20031;-59
2022/07/02 07:36:28;;;;;;;2.00;0.95;;;34.10;74.10;;;;;;5088665;28;20092;-59
2022/07/02 07:38:54;;;;;;;1.80;0.95;;;34.10;73.30;;;;;;5091391;28;20039;-59
2022/07/02 07:41:22;;;;;;;2.33;0.80;;;34.20;73.60;;;;;;5090259;28;20040;-59
2022/07/02 07:43:48;;;;;;;2.53;1.00;;;34.30;74.40;;;;;;5089576;28;20244;-59
2022/07/02 07:46:13;;;;;;;0.93;0.80;;;33.30;72.80;;;;;;5092439;28;20118;-58
2022/07/02 07:48:39;;;;;;;1.58;0.93;;;32.30;70.90;;;;;;5093872;28;20111;-58
2022/07/02 07:51:05;;;;;;;4.57;1.10;;;33.40;73.60;;;;;;5094069;28;20024;-58
2022/07/02 07:53:31;;;;;;;1.95;0.93;;;33.10;72.70;;;;;;5095767;28;20020;-59
2022/07/02 07:55:57;;;;;;;2.38;1.20;;;32.70;71.50;;;;;;5093618;28;20439;-58
2022/07/02 07:58:23;;;;;;;2.70;0.98;;;31.80;72.00;;;;;;5093472;28;20069;-58
2022/07/02 08:00:49;;;;;;;2.58;1.13;;;32.50;72.00;;;;;;5093383;28;20093;-58
2022/07/02 08:03:17;;;;;;;1.65;1.00;;;32.70;71.00;;;;;;5093984;28;20480;-57
2022/07/02 08:05:43;;;;;;;1.90;1.02;;;32.70;70.80;;;;;;5095450;28;20035;-58
2022/07/02 08:08:09;;;;;;;2.90;1.15;;;34.60;69.60;;;;;;5093302;28;20020;-58
2022/07/02 08:10:34;;;;;;;2.78;1.30;;;34.70;68.60;;;;;;5093423;28;20101;-58
2022/07/02 08:13:00;;;;;;;2.65;1.00;;;34.10;70.30;;;;;;5091952;28;20032;-58
2022/07/02 08:15:27;;;;;;;2.95;1.10;;;33.80;67.50;;;;;;5091606;28;20028;-58
2022/07/02 08:17:53;;;;;;;3.00;1.20;;;34.10;68.60;;;;;;5095188;28;20388;-58
2022/07/02 08:20:19;;;;;;;2.38;1.00;;;33.70;70.70;;;;;;5092277;28;20095;-58
2022/07/02 08:22:46;;;;;;;3.55;1.33;;;34.30;69.10;;;;;;5093109;28;20020;-57
2022/07/02 08:25:15;;;;;;;3.30;1.10;;;34.70;69.70;;;;;;5092923;28;20074;-58
2022/07/02 08:27:42;;;;;;;2.00;0.93;;;34.10;68.10;;;;;;5093050;28;20024;-58
2022/07/02 08:30:08;;;;;;;2.70;1.08;;;31.90;70.30;;;;;;5093116;28;20024;-58
2022/07/02 08:32:34;;;;;;;1.88;1.10;;;31.30;69.60;;;;;;5094832;28;20401;-58
2022/07/02 08:35:00;;;;;;;2.50;1.02;;;30.70;69.60;;;;;;5092903;28;20020;-58
2022/07/02 08:37:26;;;;;;;3.55;1.00;;;30.80;70.40;;;;;;5093040;28;20423;-58
2022/07/02 08:39:52;;;;;;;1.90;1.00;;;31.50;69.00;;;;;;5091977;28;20120;-58
2022/07/02 08:42:29;;;;;;;3.20;0.90;;;31.00;70.20;;;;;;5076276;28;20053;-58
2022/07/02 08:45:01;;;;;;;1.58;0.98;;;31.00;70.00;;;;;;5090475;28;20030;-58
2022/07/02 08:47:27;;;;;;;2.77;1.03;;;30.80;71.10;;;;;;5094222;28;20027;-58
2022/07/02 08:49:55;;;;;;;4.43;1.17;;;30.10;72.00;;;;;;5092390;28;20077;-58
2022/07/02 08:52:22;;;;;;;1.25;0.95;;;30.00;71.50;;;;;;5091324;28;20020;-58
2022/07/02 08:54:49;;;;;;;3.17;1.00;;;30.00;71.30;;;;;;5091078;28;20020;-58
2022/07/02 08:57:15;;;;;;;3.10;1.10;;;29.70;72.00;;;;;;5091125;28;20051;-58
2022/07/02 08:59:42;;;;;;;1.65;0.90;;;31.50;71.10;;;;;;5094482;28;20101;-58
2022/07/02 09:02:11;;;;;;;1.17;0.82;;;30.80;70.30;;;;;;5091019;28;20451;-58
2022/07/02 09:04:49;;;;;;;1.40;0.90;;;31.10;71.20;;;;;;5092226;28;20032;-58
2022/07/02 09:07:17;;;;;;;2.10;1.23;;;32.00;71.80;;;;;;5092199;28;20497;-58
2022/07/02 09:09:44;;;;;;;2.17;0.90;;;33.20;70.60;;;;;;5092219;28;20027;-58
2022/07/02 09:12:14;;;;;;;2.00;1.00;;;33.90;68.90;;;;;;5092210;28;20039;-58
2022/07/02 09:14:42;;;;;;;1.17;0.85;;;33.40;68.60;;;;;;5093713;28;20497;-58
2022/07/02 09:17:09;;;;;;;1.15;0.80;;;32.70;69.70;;;;;;5092023;28;20058;-58
2022/07/02 09:19:36;;;;;;;1.73;0.90;;;31.90;69.40;;;;;;5092071;28;20032;-58
2022/07/02 09:22:02;;;;;;;1.85;1.00;;;32.30;69.50;;;;;;5091819;28;20021;-58
2022/07/02 09:24:34;;;;;;;1.23;0.80;;;32.70;70.70;;;;;;5091889;28;20024;-58
2022/07/02 09:27:01;;;;;;;4.28;1.13;;;33.30;67.50;;;;;;5092796;28;20031;-58
2022/07/02 09:29:27;;;;;;;2.53;1.00;;;33.10;68.80;;;;;;5093164;28;20063;-58
2022/07/02 09:31:53;;;;;;;1.50;0.82;;;32.20;68.60;;;;;;5090750;28;20484;-57
2022/07/02 09:34:26;;;;;;;2.42;0.90;;;32.10;68.80;;;;;;5088889;28;20020;-58
2022/07/02 09:36:52;;;;;;;2.03;1.00;;;33.40;69.60;;;;;;5091717;28;20039;-57
2022/07/02 09:39:31;;;;;;;1.83;0.90;;;32.40;69.90;;;;;;5075519;28;20017;-58
2022/07/02 09:41:57;;;;;;;2.42;0.82;;;33.80;68.60;;;;;;5089544;28;20048;-57
2022/07/02 09:44:27;;;;;;;1.85;0.90;;;34.50;68.70;;;;;;5092377;28;20030;-58
2022/07/02 09:46:53;;;;;;;1.67;0.80;;;33.00;68.50;;;;;;5091898;28;20111;-58
2022/07/02 09:49:19;;;;;;;2.22;0.90;;;33.20;68.10;;;;;;5091546;28;20154;-58
2022/07/02 09:51:53;;;;;;;1.55;0.85;;;31.70;69.80;;;;;;5091972;28;20051;-58
2022/07/02 09:54:23;;;;;;;3.08;0.98;;;30.30;71.00;;;;;;5075460;28;20013;-57
2022/07/02 09:56:56;;;;;;;2.13;0.73;;;33.00;69.10;;;;;;5089075;28;20377;-58
2022/07/02 09:59:23;;;;;;;2.00;0.80;;;33.70;66.90;;;;;;5090862;28;20492;-58
2022/07/02 10:01:49;;;;;;;1.27;0.80;;;32.20;67.90;;;;;;5090654;28;20114;-58
2022/07/02 10:04:15;;;;;;;1.15;0.60;;;30.50;70.30;;;;;;5091514;28;20012;-58
2022/07/02 10:06:44;;;;;;;1.23;0.80;;;30.50;69.70;;;;;;5091204;28;20690;-58
2022/07/02 10:09:12;;;;;;;3.40;1.00;;;31.60;70.30;;;;;;5090919;28;20058;-58
2022/07/02 10:11:38;;;;;;;2.00;0.80;;;32.60;69.20;;;;;;5091979;28;20032;-58
2022/07/02 10:14:05;;;;;;;2.20;1.00;;;30.90;70.00;;;;;;5089373;28;20385;-57
2022/07/02 10:16:31;;;;;;;1.27;0.80;;;32.60;70.30;;;;;;5090980;28;20032;-58
2022/07/02 10:19:03;;;;;;;1.85;0.90;;;31.20;69.20;;;;;;5090943;28;20507;-58
2022/07/02 10:21:30;;;;;;;1.05;0.77;;;31.10;69.00;;;;;;5091311;28;20095;-58
2022/07/02 10:23:57;;;;;;;1.60;0.73;;;29.70;67.60;;;;;;5092204;28;20104;-58
2022/07/02 10:26:23;;;;;;;1.65;0.90;;;29.00;72.30;;;;;;5091565;28;20165;-58
2022/07/02 10:28:49;;;;;;;1.90;0.80;;;30.10;71.20;;;;;;5090659;28;20502;-57
2022/07/02 10:31:19;;;;;;;4.13;1.02;;;29.40;70.70;;;;;;5090672;28;20024;-58
2022/07/02 10:34:00;;;;;;;3.42;0.90;;;29.00;71.90;;;;;;5090815;28;20404;-58
2022/07/02 10:36:26;;;;;;;2.05;1.00;;;31.10;71.30;;;;;;5075557;28;20069;-58
2022/07/02 10:38:57;;;;;;;1.60;0.90;;;29.60;70.50;;;;;;5092301;28;20024;-57
2022/07/02 10:41:28;;;;;;;2.00;0.80;;;28.80;71.70;;;;;;5090801;28;20039;-58
2022/07/02 10:43:58;;;;;;;2.15;0.77;;;30.20;74.40;;;;;;5090487;28;20032;-58
2022/07/02 10:46:26;;;;;;;3.45;1.15;;;29.90;72.70;;;;;;5090479;28;20119;-58
2022/07/02 10:49:00;;;;;;;3.15;1.00;;;30.00;76.30;;;;;;5088958;28;20048;-58
2022/07/02 10:51:32;;;;;;;4.53;0.98;;;30.60;74.90;;;;;;5073701;28;20032;-57
2022/07/02 10:54:00;;;;;;;1.83;0.80;;;30.70;75.60;;;;;;5092002;28;20028;-58
2022/07/02 10:56:27;;;;;;;3.08;0.90;;;31.40;73.90;;;;;;5091212;28;20024;-58
2022/07/02 10:58:53;;;;;;;1.58;0.73;;;30.50;71.90;;;;;;5090378;28;20044;-58
2022/07/02 11:01:24;;;;;;;2.55;0.80;;;29.30;72.10;;;;;;5090234;28;20027;-58
2022/07/02 11:04:00;;;;;;;1.20;0.68;;;30.70;74.90;;;;;;5090318;28;20054;-58
2022/07/02 11:06:28;;;;;;;1.83;0.90;;;30.40;70.70;;;;;;5074857;28;20046;-57
2022/07/02 11:09:01;;;;;;;1.80;0.50;;;30.00;72.50;;;;;;5091638;28;20532;-58
2022/07/02 11:11:49;;;;;;;3.10;0.82;;;30.30;71.50;;;;;;5091725;28;20028;-58
2022/07/02 11:14:18;;;;;;;1.13;0.70;;;29.90;75.40;;;;;;5090236;28;20120;-58
2022/07/02 11:16:49;;;;;;;1.38;0.90;;;30.40;71.40;;;;;;5089968;28;20024;-58
2022/07/02 11:19:18;;;;;;;2.15;0.70;;;29.90;71.60;;;;;;5089311;28;20046;-58
2022/07/02 11:21:45;;;;;;;3.90;1.10;;;31.50;72.00;;;;;;5089761;28;20063;-58
2022/07/02 11:24:11;;;;;;;1.55;0.70;;;29.40;74.70;;;;;;5089686;28;20087;-58
2022/07/02 11:26:43;;;;;;;2.10;0.93;;;29.20;73.20;;;;;;5092349;28;20032;-58
2022/07/02 11:29:10;;;;;;;2.88;0.85;;;30.00;71.80;;;;;;5088494;28;20387;-58
2022/07/02 11:31:38;;;;;;;1.92;0.80;;;31.60;71.70;;;;;;5088300;28;20028;-58
2022/07/02 11:34:04;;;;;;;0.88;0.70;;;30.60;70.20;;;;;;5088752;28;20077;-58
2022/07/02 11:36:29;;;;;;;1.55;0.80;;;30.60;75.60;;;;;;5088733;28;20031;-58
2022/07/02 11:38:55;;;;;;;1.58;0.73;;;31.40;72.40;;;;;;5091273;28;20035;-58
2022/07/02 11:41:34;;;;;;;2.10;0.80;;;31.70;72.90;;;;;;5090340;28;20073;-58
2022/07/02 11:44:10;;;;;;;0.82;0.73;;;32.40;72.60;;;;;;5089736;28;20051;-58
2022/07/02 11:46:37;;;;;;;4.43;0.95;;;30.00;70.30;;;;;;5089745;28;20028;-58
2022/07/02 11:49:02;;;;;;;0.80;0.55;;;29.50;71.60;;;;;;5089612;28;20119;-58
2022/07/02 11:51:28;;;;;;;2.17;0.70;;;28.70;72.30;;;;;;5089850;28;20059;-58
2022/07/02 11:54:02;;;;;;;1.63;0.80;;;30.20;73.90;;;;;;5091233;28;20028;-58
2022/07/02 11:56:31;;;;;;;2.08;0.90;;;29.80;70.00;;;;;;5091195;28;20020;-57
2022/07/02 11:58:57;;;;;;;2.10;0.90;;;30.90;74.00;;;;;;5089523;28;20519;-57
2022/07/02 12:01:23;;;;;;;2.47;1.00;;;29.30;72.20;;;;;;5089478;28;20020;-57
2022/07/02 12:03:52;;;;;;;1.85;0.80;;;29.00;74.50;;;;;;5089596;28;20050;-58
2022/07/02 12:06:18;;;;;;;1.17;0.80;;;29.20;74.10;;;;;;5088823;28;20067;-58
2022/07/02 12:08:44;;;;;;;1.85;0.55;;;31.10;72.90;;;;;;5090899;28;20477;-57
2022/07/02 12:11:16;;;;;;;1.30;0.70;;;30.10;72.90;;;;;;5088277;28;20580;-57
2022/07/02 12:13:43;;;;;;;0.88;0.70;;;30.80;72.30;;;;;;5089428;28;20036;-57
2022/07/02 12:16:19;;;;;;;2.05;0.98;;;30.90;71.30;;;;;;5088218;28;20493;-58
2022/07/02 12:18:59;;;;;;;0.73;0.65;;;29.80;69.50;;;;;;5089525;28;20032;-58
2022/07/02 12:21:32;;;;;;;1.80;0.90;;;30.80;73.00;;;;;;5073806;28;20103;-58
2022/07/02 12:23:58;;;;;;;1.27;0.70;;;29.40;70.60;;;;;;5091052;28;20035;-57
2022/07/02 12:26:26;;;;;;;1.58;1.00;;;31.00;70.80;;;;;;5090110;28;20546;-57
2022/07/02 12:31:45;;;;;;;2.72;0.80;;;31.40;71.30;;;;;;5091516;28;20089;-58
2022/07/02 12:34:11;;;;;;;1.52;0.75;;;30.70;69.70;;;;;;5092728;28;20032;-57
2022/07/02 12:36:57;;;;;;;3.42;0.80;;;31.50;68.90;;;;;;5092772;28;20081;-57
2022/07/02 12:39:35;;;;;;;1.20;0.80;;;30.50;69.50;;;;;;5077485;28;20021;-58
2022/07/02 12:42:10;;;;;;;1.85;0.70;;;30.00;70.70;;;;;;5093786;28;20048;-58
2022/07/02 12:44:36;;;;;;;2.67;0.80;;;30.50;68.00;;;;;;5093146;28;20438;-58
2022/07/02 12:47:01;;;;;;;3.15;0.80;;;31.10;68.50;;;;;;5091219;28;20032;-58
2022/07/02 12:49:27;;;;;;;1.13;0.70;;;31.20;68.20;;;;;;5091085;28;20023;-58
2022/07/02 12:51:58;;;;;;;2.45;0.90;;;30.70;72.30;;;;;;5092621;28;20032;-58
2022/07/02 12:54:36;;;;;;;1.67;0.80;;;30.80;70.70;;;;;;5075978;28;20024;-58
2022/07/02 12:57:16;;;;;;;1.50;1.00;;;30.00;67.50;;;;;;5093454;28;20028;-58